createdAt,value
2023-03-16T00:02:12.477Z,70.10
2023-03-16T00:04:39.978Z,69.70
2023-03-16T00:07:10.869Z,69.50
2023-03-16T00:09:41.241Z,69.40
2023-03-16T00:12:16.853Z,69.60
2023-03-16T00:14:48.821Z,69.40
2023-03-16T00:17:21.079Z,69.40
2023-03-16T00:19:54.964Z,70.00
2023-03-16T00:22:25.632Z,69.60
2023-03-16T00:24:53.889Z,69.70
2023-03-16T00:27:24.937Z,70.10
2023-03-16T00:29:56.978Z,69.30
2023-03-16T00:32:32.087Z,69.40
2023-03-16T00:35:02.052Z,69.20
2023-03-16T00:37:33.041Z,69.60
2023-03-16T00:40:02.131Z,69.50
2023-03-16T00:42:34.257Z,69.50
2023-03-16T00:45:02.043Z,69.60
2023-03-16T00:47:34.355Z,69.20
2023-03-16T00:50:02.843Z,69.40
2023-03-16T00:52:30.253Z,69.40
2023-03-16T00:54:58.317Z,69.30
2023-03-16T00:57:27.798Z,69.20
2023-03-16T00:59:55.868Z,69.10
2023-03-16T01:02:26.116Z,68.80
2023-03-16T01:04:54.865Z,69.90
2023-03-16T01:07:22.792Z,69.60
2023-03-16T01:09:51.298Z,69.90
2023-03-16T01:12:19.788Z,69.10
2023-03-16T01:14:47.270Z,69.10
2023-03-16T01:17:17.257Z,69.30
2023-03-16T01:19:45.762Z,69.30
2023-03-16T01:22:13.288Z,69.00
2023-03-16T01:24:41.906Z,69.50
2023-03-16T01:27:09.671Z,69.60
2023-03-16T01:29:38.002Z,70.00
2023-03-16T01:32:07.015Z,70.50
2023-03-16T01:34:34.843Z,71.10
2023-03-16T01:37:02.388Z,70.50
2023-03-16T01:39:37.576Z,71.80
2023-03-16T01:42:05.917Z,71.70
2023-03-16T01:44:50.860Z,72.30
2023-03-16T01:47:18.484Z,72.20
2023-03-16T01:49:48.243Z,72.50
2023-03-16T01:52:22.119Z,72.10
2023-03-16T01:54:57.576Z,72.40
2023-03-16T01:57:32.583Z,73.80
2023-03-16T02:00:33.329Z,74.10
2023-03-16T02:03:19.766Z,73.70
2023-03-16T02:06:04.944Z,74.70
2023-03-16T02:08:35.143Z,75.20
2023-03-16T02:11:04.772Z,75.20
2023-03-16T02:13:52.875Z,75.20
2023-03-16T02:16:22.693Z,75.50
2023-03-16T02:18:51.608Z,76.00
2023-03-16T02:21:54.691Z,75.80
2023-03-16T02:24:22.858Z,75.80
2023-03-16T02:27:17.672Z,75.80
2023-03-16T02:29:55.374Z,75.90
2023-03-16T02:32:24.647Z,76.00
2023-03-16T02:34:52.152Z,76.10
2023-03-16T02:37:19.366Z,76.60
2023-03-16T02:39:46.419Z,75.90
2023-03-16T02:42:22.015Z,75.80
2023-03-16T02:44:58.365Z,75.70
2023-03-16T02:47:42.349Z,75.70
2023-03-16T02:50:12.490Z,75.00
2023-03-16T02:52:41.163Z,75.50
2023-03-16T02:55:09.348Z,75.40
2023-03-16T02:57:36.611Z,74.60
2023-03-16T03:00:16.992Z,74.90
2023-03-16T03:02:46.267Z,74.20
2023-03-16T03:05:13.598Z,74.10
2023-03-16T03:07:41.022Z,74.30
2023-03-16T03:10:09.812Z,74.40
2023-03-16T03:12:37.891Z,74.60
2023-03-16T03:15:08.869Z,74.40
2023-03-16T03:17:45.145Z,74.50
2023-03-16T03:20:16.853Z,74.10
2023-03-16T03:22:47.237Z,73.90
2023-03-16T03:25:17.348Z,74.20
2023-03-16T03:27:46.000Z,73.40
2023-03-16T03:30:24.351Z,73.50
2023-03-16T03:32:52.548Z,73.70
2023-03-16T03:35:21.575Z,73.20
2023-03-16T03:37:49.669Z,73.10
2023-03-16T03:40:19.854Z,72.80
2023-03-16T03:42:51.481Z,72.60
2023-03-16T03:45:18.813Z,73.10
2023-03-16T03:47:45.935Z,72.40
2023-03-16T03:50:19.129Z,72.10
2023-03-16T03:53:07.549Z,71.70
2023-03-16T03:55:45.791Z,72.30
2023-03-16T03:58:12.846Z,71.40
2023-03-16T04:00:40.057Z,71.50
2023-03-16T04:03:07.374Z,71.70
2023-03-16T04:05:42.594Z,71.00
2023-03-16T04:08:09.745Z,71.00
2023-03-16T04:10:36.858Z,70.70
2023-03-16T04:13:04.057Z,70.90
2023-03-16T04:15:34.067Z,70.80
2023-03-16T04:18:10.454Z,70.90
2023-03-16T04:20:38.083Z,71.00
2023-03-16T04:23:05.353Z,70.80
2023-03-16T04:25:38.378Z,70.90
2023-03-16T04:28:06.415Z,71.50
2023-03-16T04:30:35.587Z,71.50
2023-03-16T04:33:12.946Z,71.10
2023-03-16T04:35:40.160Z,71.30
2023-03-16T04:38:07.982Z,72.10
2023-03-16T04:40:41.977Z,72.50
2023-03-16T04:43:17.148Z,71.90
2023-03-16T04:45:44.843Z,72.80
2023-03-16T04:48:12.363Z,72.50
2023-03-16T04:50:40.979Z,73.20
2023-03-16T04:53:08.550Z,73.30
2023-03-16T04:55:36.413Z,74.00
2023-03-16T04:58:03.978Z,73.90
2023-03-16T05:00:34.809Z,74.00
2023-03-16T05:03:14.950Z,74.20
2023-03-16T05:05:42.619Z,74.40
2023-03-16T05:08:12.254Z,73.80
2023-03-16T05:10:41.843Z,73.90
2023-03-16T05:13:09.045Z,73.40
2023-03-16T05:15:36.321Z,73.70
2023-03-16T05:18:24.790Z,73.40
2023-03-16T05:20:54.341Z,73.30
2023-03-16T05:23:21.942Z,73.00
2023-03-16T05:25:54.980Z,73.00
2023-03-16T05:28:24.655Z,73.20
2023-03-16T05:30:57.694Z,73.00
2023-03-16T05:33:27.640Z,72.50
2023-03-16T05:36:03.157Z,72.40
2023-03-16T05:38:31.973Z,71.90
2023-03-16T05:41:03.386Z,72.30
2023-03-16T05:43:48.121Z,72.20
2023-03-16T05:46:16.662Z,71.90
2023-03-16T05:48:44.576Z,71.70
2023-03-16T05:51:14.489Z,71.60
2023-03-16T05:53:42.618Z,71.40
2023-03-16T05:56:17.422Z,71.40
2023-03-16T05:58:46.435Z,71.10
2023-03-16T06:01:15.587Z,70.90
2023-03-16T06:03:43.688Z,70.70
2023-03-16T06:06:17.113Z,70.20
2023-03-16T06:08:54.583Z,70.50
2023-03-16T06:11:24.248Z,69.70
2023-03-16T06:13:51.641Z,69.10
2023-03-16T06:16:18.737Z,69.70
2023-03-16T06:18:45.845Z,68.60
2023-03-16T06:21:12.973Z,68.60
2023-03-16T06:23:41.058Z,68.60
2023-03-16T06:26:09.853Z,68.20
2023-03-16T06:28:41.547Z,68.00
2023-03-16T06:31:08.832Z,68.30
2023-03-16T06:33:36.971Z,67.70
2023-03-16T06:36:04.372Z,68.10
2023-03-16T06:38:39.104Z,67.40
2023-03-16T06:41:38.615Z,67.10
2023-03-16T06:44:10.446Z,67.60
2023-03-16T06:46:42.521Z,67.40
2023-03-16T06:49:11.097Z,67.60
2023-03-16T06:51:39.008Z,67.40
2023-03-16T06:54:06.157Z,67.00
2023-03-16T06:56:37.516Z,66.80
2023-03-16T06:59:04.705Z,66.90
2023-03-16T07:01:31.921Z,67.20
2023-03-16T07:03:59.169Z,66.70
2023-03-16T07:06:30.296Z,66.50
2023-03-16T07:08:57.362Z,66.80
2023-03-16T07:11:24.747Z,66.60
2023-03-16T07:13:51.900Z,66.20
2023-03-16T07:16:23.972Z,65.90
2023-03-16T07:18:56.462Z,66.00
2023-03-16T07:21:23.907Z,66.00
2023-03-16T07:23:53.820Z,66.00
2023-03-16T07:26:25.093Z,66.00
2023-03-16T07:28:59.336Z,65.70
2023-03-16T07:31:26.805Z,65.40
2023-03-16T07:33:55.958Z,64.90
2023-03-16T07:36:32.257Z,64.90
2023-03-16T07:39:01.850Z,64.70
2023-03-16T07:41:30.513Z,64.30
2023-03-16T07:44:14.340Z,64.40
2023-03-16T07:46:42.685Z,64.90
2023-03-16T07:49:10.813Z,64.50
2023-03-16T07:51:38.924Z,64.10
2023-03-16T07:54:06.707Z,64.10
2023-03-16T07:56:47.929Z,62.90
2023-03-16T07:59:25.876Z,63.00
2023-03-16T08:01:53.248Z,62.70
2023-03-16T08:04:20.496Z,63.30
2023-03-16T08:06:47.942Z,62.60
2023-03-16T08:09:15.391Z,62.50
2023-03-16T08:11:43.698Z,62.10
2023-03-16T08:14:11.501Z,62.50
2023-03-16T08:16:54.929Z,61.60
2023-03-16T08:19:23.459Z,61.60
2023-03-16T08:22:01.106Z,60.60
2023-03-16T08:24:34.961Z,61.80
2023-03-16T08:27:03.926Z,61.70
2023-03-16T08:29:34.420Z,61.00
2023-03-16T08:32:03.196Z,59.80
2023-03-16T08:34:37.489Z,60.40
2023-03-16T08:37:04.993Z,59.60
2023-03-16T08:39:36.239Z,59.80
2023-03-16T08:42:12.562Z,58.80
2023-03-16T08:45:02.098Z,58.50
2023-03-16T08:47:35.576Z,58.10
2023-03-16T08:50:21.309Z,59.40
2023-03-16T08:52:53.321Z,58.00
2023-03-16T08:55:27.955Z,59.40
2023-03-16T08:58:02.398Z,58.10
2023-03-16T09:00:55.128Z,58.80
2023-03-16T09:03:26.473Z,57.40
2023-03-16T09:06:28.588Z,56.60
2023-03-16T09:09:29.296Z,58.50
2023-03-16T09:12:07.290Z,57.30
2023-03-16T09:14:46.099Z,55.80
2023-03-16T09:17:46.330Z,56.90
2023-03-16T09:20:22.740Z,56.50
2023-03-16T09:22:56.405Z,57.10
2023-03-16T09:25:34.386Z,56.90
2023-03-16T09:28:08.399Z,56.00
2023-03-16T09:30:38.540Z,56.80
2023-03-16T09:33:16.048Z,56.20
2023-03-16T09:35:56.455Z,57.20
2023-03-16T09:38:56.844Z,55.80
2023-03-16T09:41:58.078Z,55.90
2023-03-16T09:44:59.007Z,56.50
2023-03-16T09:47:40.354Z,55.50
2023-03-16T09:50:35.272Z,55.80
2023-03-16T09:53:38.522Z,54.50
2023-03-16T09:56:30.271Z,54.50
2023-03-16T09:58:59.355Z,55.10
2023-03-16T10:02:15.665Z,54.90
2023-03-16T10:05:20.638Z,54.20
2023-03-16T10:08:35.508Z,54.80
2023-03-16T10:11:21.058Z,54.00
2023-03-16T10:14:04.985Z,53.40
2023-03-16T10:17:06.754Z,53.80
2023-03-16T10:20:15.762Z,52.90
2023-03-16T10:22:51.087Z,52.20
2023-03-16T10:25:52.956Z,52.80
2023-03-16T10:28:32.242Z,53.90
2023-03-16T10:31:01.715Z,52.40
2023-03-16T10:33:44.633Z,50.20
2023-03-16T10:36:40.865Z,50.10
2023-03-16T10:39:20.811Z,50.80
2023-03-16T10:42:02.947Z,49.90
2023-03-16T10:44:34.917Z,48.60
2023-03-16T10:47:08.550Z,48.10
2023-03-16T10:49:42.191Z,50.30
2023-03-16T10:52:19.818Z,48.50
2023-03-16T10:54:55.868Z,50.10
2023-03-16T10:57:35.262Z,49.10
2023-03-16T11:00:34.630Z,49.40
2023-03-16T11:03:23.024Z,49.60
2023-03-16T11:05:59.068Z,48.30
2023-03-16T11:08:28.508Z,48.50
2023-03-16T11:10:58.824Z,48.50
2023-03-16T11:13:34.541Z,45.70
2023-03-16T11:16:39.957Z,47.60
2023-03-16T11:19:35.687Z,47.30
2023-03-16T11:22:12.625Z,47.80
2023-03-16T11:24:56.289Z,48.10
2023-03-16T11:27:46.930Z,46.10
2023-03-16T11:30:31.004Z,45.60
2023-03-16T11:33:00.692Z,47.30
2023-03-16T11:35:58.695Z,45.10
2023-03-16T11:38:33.721Z,44.90
2023-03-16T11:41:05.900Z,45.40
2023-03-16T11:43:57.202Z,45.80
2023-03-16T11:46:29.947Z,46.60
2023-03-16T11:49:15.281Z,46.90
2023-03-16T11:52:20.593Z,47.40
2023-03-16T11:55:25.711Z,46.30
2023-03-16T11:57:57.472Z,46.90
2023-03-16T12:00:56.144Z,47.10
2023-03-16T12:03:32.230Z,50.00
2023-03-16T12:06:38.698Z,47.70
2023-03-16T12:09:37.854Z,48.00
2023-03-16T12:12:53.475Z,46.40
2023-03-16T12:15:38.478Z,47.00
2023-03-16T12:18:35.856Z,47.20
2023-03-16T12:21:18.527Z,46.80
2023-03-16T12:24:19.139Z,46.50
2023-03-16T12:26:47.425Z,46.50
2023-03-16T12:29:35.301Z,45.30
2023-03-16T12:32:22.851Z,46.30
2023-03-16T12:35:16.881Z,45.90
2023-03-16T12:38:25.508Z,46.20
2023-03-16T12:41:21.054Z,45.60
2023-03-16T12:44:15.210Z,45.00
2023-03-16T12:46:48.238Z,44.50
2023-03-16T12:49:16.410Z,45.30
2023-03-16T12:51:45.557Z,43.50
2023-03-16T12:54:25.483Z,43.90
2023-03-16T12:57:01.233Z,43.90
2023-03-16T12:59:48.992Z,44.40
2023-03-16T13:02:39.394Z,43.80
2023-03-16T13:05:16.599Z,44.60
2023-03-16T13:08:09.289Z,42.80
2023-03-16T13:10:39.738Z,43.20
2023-03-16T13:13:29.380Z,43.40
2023-03-16T13:16:11.216Z,43.60
2023-03-16T13:18:53.895Z,42.50
2023-03-16T13:21:46.763Z,42.40
2023-03-16T13:24:30.593Z,43.20
2023-03-16T13:27:33.667Z,42.40
2023-03-16T13:30:47.238Z,43.60
2023-03-16T13:33:22.492Z,42.90
2023-03-16T13:36:11.671Z,42.10
2023-03-16T13:38:45.250Z,42.10
2023-03-16T13:41:27.457Z,41.20
2023-03-16T13:43:57.377Z,41.60
2023-03-16T13:46:32.440Z,41.00
2023-03-16T13:49:05.928Z,42.20
2023-03-16T13:51:43.181Z,42.50
2023-03-16T13:54:24.908Z,42.70
2023-03-16T13:57:15.426Z,40.70
2023-03-16T13:59:46.861Z,41.40
2023-03-16T14:02:24.810Z,41.00
2023-03-16T14:05:20.478Z,40.00
2023-03-16T14:08:05.631Z,39.80
2023-03-16T14:10:49.286Z,41.20
2023-03-16T14:13:36.158Z,40.60
2023-03-16T14:16:18.006Z,40.30
2023-03-16T14:18:58.312Z,41.30
2023-03-16T14:21:31.428Z,40.70
2023-03-16T14:24:14.566Z,40.20
2023-03-16T14:26:53.111Z,41.60
2023-03-16T14:29:42.542Z,40.80
2023-03-16T14:32:29.638Z,41.10
2023-03-16T14:35:18.382Z,40.80
2023-03-16T14:37:50.404Z,41.80
2023-03-16T14:40:34.595Z,40.60
2023-03-16T14:43:04.952Z,42.90
2023-03-16T14:45:35.059Z,42.20
2023-03-16T14:48:17.045Z,42.10
2023-03-16T14:50:44.769Z,41.90
2023-03-16T14:53:11.975Z,42.60
2023-03-16T14:55:39.535Z,41.30
2023-03-16T14:58:06.776Z,41.80
2023-03-16T15:00:42.750Z,40.90
2023-03-16T15:03:17.151Z,40.10
2023-03-16T15:05:50.705Z,39.70
2023-03-16T15:08:28.626Z,40.90
2023-03-16T15:11:01.916Z,40.20
2023-03-16T15:13:52.510Z,41.30
2023-03-16T15:16:22.017Z,41.90
2023-03-16T15:18:49.325Z,41.60
2023-03-16T15:21:25.562Z,41.60
2023-03-16T15:23:52.651Z,41.40
2023-03-16T15:26:27.317Z,41.60
2023-03-16T15:28:56.971Z,41.70
2023-03-16T15:31:24.591Z,43.70
2023-03-16T15:33:51.853Z,42.10
2023-03-16T15:36:22.166Z,42.90
2023-03-16T15:38:52.854Z,41.00
2023-03-16T15:41:20.188Z,41.50
2023-03-16T15:43:47.377Z,40.60
2023-03-16T15:46:15.054Z,39.90
2023-03-16T15:48:42.304Z,40.70
2023-03-16T15:51:27.445Z,42.20
2023-03-16T15:54:04.377Z,43.00
2023-03-16T15:56:44.021Z,42.80
2023-03-16T15:59:18.406Z,44.00
2023-03-16T16:01:48.489Z,44.30
2023-03-16T16:04:23.465Z,44.00
2023-03-16T16:06:55.097Z,43.70
2023-03-16T16:09:22.828Z,43.90
2023-03-16T16:11:51.371Z,43.40
2023-03-16T16:14:25.600Z,43.30
2023-03-16T16:16:54.444Z,43.60
2023-03-16T16:19:21.873Z,43.50
2023-03-16T16:21:49.072Z,45.60
2023-03-16T16:24:18.236Z,44.90
2023-03-16T16:26:54.956Z,45.50
2023-03-16T16:29:26.710Z,45.70
2023-03-16T16:31:54.414Z,45.70
2023-03-16T16:34:27.218Z,45.20
2023-03-16T16:36:57.993Z,45.50
2023-03-16T16:39:25.418Z,46.10
2023-03-16T16:41:55.389Z,46.10
2023-03-16T16:44:33.906Z,46.30
2023-03-16T16:47:03.664Z,46.50
2023-03-16T16:49:35.342Z,45.90
2023-03-16T16:52:03.697Z,45.80
2023-03-16T16:54:33.378Z,46.00
2023-03-16T16:57:03.306Z,46.60
2023-03-16T16:59:38.649Z,46.60
2023-03-16T17:02:31.904Z,47.30
2023-03-16T17:05:03.411Z,46.60
2023-03-16T17:07:34.611Z,46.30
2023-03-16T17:10:05.394Z,46.30
2023-03-16T17:12:32.499Z,47.40
2023-03-16T17:14:59.830Z,46.70
2023-03-16T17:17:28.748Z,46.80
2023-03-16T17:19:59.232Z,47.80
2023-03-16T17:22:49.078Z,47.50
2023-03-16T17:25:28.596Z,47.50
2023-03-16T17:28:09.384Z,47.90
2023-03-16T17:30:36.618Z,48.40
2023-03-16T17:33:15.594Z,49.70
2023-03-16T17:35:44.951Z,49.40
2023-03-16T17:38:24.229Z,49.20
2023-03-16T17:40:53.111Z,49.20
2023-03-16T17:43:23.430Z,49.60
2023-03-16T17:45:52.523Z,51.00
2023-03-16T17:48:24.105Z,50.50
2023-03-16T17:50:51.988Z,50.60
2023-03-16T17:53:21.670Z,51.40
2023-03-16T17:55:48.981Z,51.30
2023-03-16T17:58:29.592Z,51.50
2023-03-16T18:00:58.668Z,51.70
2023-03-16T18:03:29.320Z,52.10
2023-03-16T18:05:57.868Z,52.60
2023-03-16T18:08:28.180Z,52.10
2023-03-16T18:10:59.870Z,52.40
2023-03-16T18:13:35.123Z,52.30
2023-03-16T18:16:05.800Z,51.90
2023-03-16T18:18:42.814Z,51.50
2023-03-16T18:21:23.497Z,51.60
2023-03-16T18:23:52.910Z,52.00
2023-03-16T18:26:21.912Z,51.90
2023-03-16T18:28:49.069Z,52.00
2023-03-16T18:31:27.827Z,52.30
2023-03-16T18:33:59.696Z,52.30
2023-03-16T18:36:32.248Z,52.50
2023-03-16T18:39:03.862Z,52.70
2023-03-16T18:41:34.708Z,53.20
2023-03-16T18:44:20.350Z,53.20
2023-03-16T18:46:49.748Z,53.40
2023-03-16T18:49:50.458Z,53.80
2023-03-16T18:52:26.064Z,54.10
2023-03-16T18:55:05.065Z,54.20
2023-03-16T18:57:34.884Z,54.50
2023-03-16T19:00:20.195Z,54.50
2023-03-16T19:03:12.821Z,54.60
2023-03-16T19:05:46.464Z,55.00
2023-03-16T19:08:16.287Z,55.10
2023-03-16T19:10:52.818Z,55.20
2023-03-16T19:13:22.490Z,55.10
2023-03-16T19:15:52.468Z,55.10
2023-03-16T19:18:24.841Z,55.20
2023-03-16T19:20:58.625Z,55.30
2023-03-16T19:23:36.931Z,55.40
2023-03-16T19:26:07.561Z,55.40
2023-03-16T19:28:37.255Z,55.80
2023-03-16T19:31:20.862Z,55.60
2023-03-16T19:33:55.999Z,55.50
2023-03-16T19:36:33.574Z,55.60
2023-03-16T19:39:02.125Z,55.70
2023-03-16T19:41:43.097Z,55.50
2023-03-16T19:44:26.335Z,55.80
2023-03-16T19:46:54.944Z,56.00
2023-03-16T19:49:26.055Z,55.80
2023-03-16T19:51:55.416Z,56.20
2023-03-16T19:54:35.067Z,56.40
2023-03-16T19:57:12.491Z,56.40
2023-03-16T19:59:40.396Z,56.10
2023-03-16T20:02:27.200Z,56.40
2023-03-16T20:04:55.797Z,55.90
2023-03-16T20:07:23.216Z,56.00
2023-03-16T20:09:51.223Z,56.20
2023-03-16T20:12:28.187Z,55.90
2023-03-16T20:14:57.129Z,55.80
2023-03-16T20:17:28.529Z,56.20
2023-03-16T20:19:57.680Z,55.90
2023-03-16T20:22:28.827Z,56.30
2023-03-16T20:24:58.054Z,55.70
2023-03-16T20:27:27.757Z,55.90
2023-03-16T20:29:55.210Z,55.90
2023-03-16T20:32:27.826Z,56.00
2023-03-16T20:34:54.993Z,56.40
2023-03-16T20:37:26.359Z,56.30
2023-03-16T20:39:56.376Z,56.50
2023-03-16T20:42:29.701Z,56.40
2023-03-16T20:44:56.903Z,56.70
2023-03-16T20:47:26.085Z,56.40
2023-03-16T20:49:57.462Z,56.90
2023-03-16T20:52:30.731Z,56.40
2023-03-16T20:54:58.827Z,56.40
2023-03-16T20:57:29.634Z,56.30
2023-03-16T20:59:56.999Z,56.70
2023-03-16T21:02:41.928Z,56.60
2023-03-16T21:05:12.196Z,56.50
2023-03-16T21:07:39.300Z,56.20
2023-03-16T21:10:06.685Z,56.30
2023-03-16T21:12:36.781Z,56.00
2023-03-16T21:15:16.703Z,55.80
2023-03-16T21:17:43.961Z,55.60
2023-03-16T21:20:22.483Z,55.60
2023-03-16T21:22:49.836Z,54.90
2023-03-16T21:25:31.099Z,54.30
2023-03-16T21:28:04.413Z,54.10
2023-03-16T21:30:43.523Z,53.70
2023-03-16T21:33:30.135Z,53.30
2023-03-16T21:35:58.743Z,53.40
2023-03-16T21:38:29.523Z,53.10
2023-03-16T21:40:57.352Z,53.00
2023-03-16T21:43:28.076Z,53.00
2023-03-16T21:45:57.040Z,52.70
2023-03-16T21:48:38.957Z,52.90
2023-03-16T21:51:19.346Z,53.00
2023-03-16T21:53:48.824Z,53.00
2023-03-16T21:56:20.646Z,52.90
2023-03-16T21:58:47.763Z,53.20
2023-03-16T22:01:26.723Z,52.70
2023-03-16T22:03:57.674Z,52.50
2023-03-16T22:06:28.045Z,52.50
2023-03-16T22:08:56.372Z,52.80
2023-03-16T22:11:29.780Z,52.50
2023-03-16T22:13:59.126Z,52.70
2023-03-16T22:16:30.129Z,52.50
2023-03-16T22:18:58.621Z,52.30
2023-03-16T22:21:38.889Z,51.60
2023-03-16T22:24:26.390Z,51.90
2023-03-16T22:26:54.073Z,52.50
2023-03-16T22:29:26.266Z,52.20
2023-03-16T22:32:02.966Z,52.20
2023-03-16T22:34:58.195Z,52.60
2023-03-16T22:37:27.658Z,52.20
2023-03-16T22:39:57.301Z,52.00
2023-03-16T22:42:38.738Z,52.50
2023-03-16T22:45:27.658Z,52.30
2023-03-16T22:47:57.719Z,52.30
2023-03-16T22:50:29.215Z,52.70
2023-03-16T22:53:00.220Z,52.60
2023-03-16T22:55:38.020Z,53.00
2023-03-16T22:58:25.634Z,53.10
2023-03-16T23:00:53.579Z,53.00
2023-03-16T23:03:23.324Z,52.80
2023-03-16T23:05:51.084Z,52.80
2023-03-16T23:08:23.084Z,52.90
2023-03-16T23:10:51.780Z,53.30
2023-03-16T23:13:22.007Z,53.20
2023-03-16T23:15:50.532Z,53.70
2023-03-16T23:18:25.340Z,53.70
2023-03-16T23:20:53.004Z,53.60
2023-03-16T23:23:20.344Z,53.60
2023-03-16T23:25:48.632Z,53.70
2023-03-16T23:28:24.552Z,53.60
2023-03-16T23:30:51.782Z,53.80
2023-03-16T23:33:18.920Z,53.50
2023-03-16T23:35:46.898Z,53.10
2023-03-16T23:38:14.282Z,53.20
2023-03-16T23:40:41.492Z,53.50
2023-03-16T23:43:09.209Z,53.50
2023-03-16T23:45:45.577Z,53.60
2023-03-16T23:48:21.741Z,53.60
2023-03-16T23:50:52.513Z,53.70
2023-03-16T23:53:20.107Z,54.30
2023-03-16T23:55:48.265Z,55.00
2023-03-16T23:58:16.286Z,55.00
